Time;durP1;ratioP1;P1;durP2;ratioP2;P2;SDS_P1;SDS_P2;PMS_P1;PMS_P2;Temp;Humidity;BMP_temperature;BMP_pressure;BME280_temperature;BME280_humidity;BME280_pressure;Samples;Min_cycle;Max_cycle;Signal;HPM_P1;HPM_P2
2024/01/25 00:01:13;;;;;;;26.07;8.00;;;9.60;99.90;;;;;;5044437;28;20198;-80
2024/01/25 00:03:40;;;;;;;26.27;6.93;;;9.60;99.90;;;;;;5040939;28;20217;-80
2024/01/25 00:06:08;;;;;;;31.57;7.70;;;9.70;99.90;;;;;;5060066;28;20231;-80
2024/01/25 00:08:36;;;;;;;24.63;6.90;;;9.80;99.90;;;;;;5036589;28;20203;-80
2024/01/25 00:11:06;;;;;;;23.73;5.73;;;9.70;99.90;;;;;;5028925;28;20216;-80
2024/01/25 00:13:34;;;;;;;27.40;7.17;;;9.60;99.90;;;;;;5036247;28;20195;-79
2024/01/25 00:16:03;;;;;;;22.93;6.90;;;9.50;99.90;;;;;;5037042;28;20231;-80
2024/01/25 00:18:31;;;;;;;29.40;7.30;;;9.60;99.90;;;;;;5036774;28;20191;-80
2024/01/25 00:20:58;;;;;;;24.07;7.07;;;9.70;99.90;;;;;;5053115;28;20207;-80
2024/01/25 00:23:26;;;;;;;27.70;7.03;;;9.70;99.90;;;;;;5038968;28;20206;-79
2024/01/25 00:25:57;;;;;;;27.67;7.27;;;9.50;99.90;;;;;;5036250;28;20717;-80
2024/01/25 00:28:28;;;;;;;24.30;6.60;;;9.60;99.90;;;;;;5036373;28;20191;-80
2024/01/25 00:30:55;;;;;;;24.90;6.67;;;9.60;99.90;;;;;;5041161;28;20213;-80
2024/01/25 00:33:23;;;;;;;22.33;6.93;;;9.50;99.90;;;;;;5033921;28;20210;-80
2024/01/25 00:35:51;;;;;;;25.27;7.43;;;9.60;99.90;;;;;;5039213;28;20242;-80
2024/01/25 00:38:19;;;;;;;23.37;7.27;;;9.60;99.90;;;;;;5046830;28;20194;-80
2024/01/25 00:40:47;;;;;;;26.57;7.20;;;9.70;99.90;;;;;;5042782;28;20199;-80
2024/01/25 00:43:15;;;;;;;27.30;8.00;;;9.60;99.90;;;;;;5033795;28;20561;-80
2024/01/25 00:45:45;;;;;;;26.40;7.10;;;9.60;99.90;;;;;;5029445;28;20218;-80
2024/01/25 00:48:14;;;;;;;32.73;8.20;;;9.60;99.90;;;;;;5045221;28;20194;-80
2024/01/25 00:50:42;;;;;;;23.63;7.13;;;9.50;99.90;;;;;;5069920;28;20202;-79
2024/01/25 00:53:10;;;;;;;28.00;6.60;;;9.60;99.90;;;;;;5042051;28;20202;-79
2024/01/25 00:55:38;;;;;;;25.03;6.97;;;9.60;99.90;;;;;;5043238;28;20182;-80
2024/01/25 00:58:06;;;;;;;22.93;6.50;;;9.60;99.90;;;;;;5054491;28;20194;-80
2024/01/25 01:00:34;;;;;;;28.30;7.47;;;9.50;99.90;;;;;;5039831;28;20194;-80
2024/01/25 01:03:05;;;;;;;26.27;7.23;;;9.50;99.90;;;;;;5039443;28;20208;-80
2024/01/25 01:05:33;;;;;;;24.53;6.73;;;9.50;99.90;;;;;;5040632;28;20568;-80
2024/01/25 01:08:01;;;;;;;22.77;7.03;;;9.50;99.90;;;;;;5055832;28;20202;-80
2024/01/25 01:10:28;;;;;;;28.87;7.47;;;9.60;99.90;;;;;;5061120;28;20194;-80
2024/01/25 01:12:55;;;;;;;24.53;8.13;;;9.50;99.90;;;;;;5064159;28;20205;-80
2024/01/25 01:15:23;;;;;;;19.37;5.87;;;9.40;99.90;;;;;;5057104;28;20205;-80
2024/01/25 01:17:50;;;;;;;25.40;6.73;;;9.40;99.90;;;;;;5044497;28;20191;-80
2024/01/25 01:20:19;;;;;;;29.57;7.00;;;9.40;99.90;;;;;;5045689;28;20194;-80
2024/01/25 01:22:46;;;;;;;30.30;8.10;;;9.40;99.90;;;;;;5052890;28;20203;-80
2024/01/25 01:25:14;;;;;;;27.80;7.70;;;9.40;99.90;;;;;;5054115;28;20225;-80
2024/01/25 01:27:41;;;;;;;20.13;6.20;;;9.40;99.90;;;;;;5055605;28;20214;-79
2024/01/25 01:30:10;;;;;;;22.87;6.77;;;9.30;99.90;;;;;;5068716;28;20195;-80
2024/01/25 01:32:37;;;;;;;25.03;6.47;;;9.30;99.90;;;;;;5036186;28;20198;-81
2024/01/25 01:35:05;;;;;;;26.10;7.10;;;9.40;99.90;;;;;;5034070;28;20196;-80
2024/01/25 01:37:34;;;;;;;27.00;7.60;;;9.30;99.90;;;;;;5044841;28;20567;-80
2024/01/25 01:40:02;;;;;;;26.40;6.80;;;9.30;99.90;;;;;;5054629;28;20202;-80
2024/01/25 01:42:29;;;;;;;22.70;6.50;;;9.30;99.90;;;;;;5057383;28;20209;-80
2024/01/25 01:44:56;;;;;;;21.57;7.20;;;9.40;99.90;;;;;;5050697;28;20576;-79
2024/01/25 01:47:24;;;;;;;25.07;7.40;;;9.30;99.90;;;;;;5051328;28;20673;-79
2024/01/25 01:49:54;;;;;;;32.03;8.07;;;9.40;99.90;;;;;;5036319;28;20203;-79
2024/01/25 01:52:21;;;;;;;23.67;7.87;;;9.30;99.90;;;;;;5038127;28;20202;-79
2024/01/25 01:54:50;;;;;;;27.43;7.87;;;9.30;99.90;;;;;;5047166;28;20199;-80
2024/01/25 01:57:18;;;;;;;23.87;7.23;;;9.30;99.90;;;;;;5038770;28;20214;-79
2024/01/25 01:59:46;;;;;;;34.17;10.90;;;9.30;99.90;;;;;;5031112;28;20203;-79
2024/01/25 02:02:14;;;;;;;21.40;7.13;;;9.30;99.90;;;;;;5041274;28;20562;-79
2024/01/25 02:04:41;;;;;;;26.60;8.93;;;9.30;99.90;;;;;;5043997;28;20214;-80
2024/01/25 02:07:09;;;;;;;24.90;7.37;;;9.30;99.90;;;;;;5043233;28;20226;-80
2024/01/25 02:09:36;;;;;;;25.30;6.50;;;9.30;99.90;;;;;;5049736;28;20226;-80
2024/01/25 02:12:06;;;;;;;28.87;7.63;;;9.40;99.90;;;;;;5037445;28;20202;-79
2024/01/25 02:14:34;;;;;;;21.53;7.07;;;9.40;99.90;;;;;;5051256;28;20192;-79
2024/01/25 02:17:01;;;;;;;24.40;7.50;;;9.40;99.90;;;;;;5054130;28;20207;-79
2024/01/25 02:19:29;;;;;;;22.00;8.13;;;9.40;99.90;;;;;;5048621;28;20195;-79
2024/01/25 02:21:59;;;;;;;29.47;7.43;;;9.30;99.90;;;;;;5052291;28;20202;-80
2024/01/25 02:24:28;;;;;;;26.13;8.33;;;9.30;99.90;;;;;;5037910;28;20196;-79
2024/01/25 02:26:56;;;;;;;26.77;7.73;;;9.30;99.90;;;;;;5040367;28;20223;-80
2024/01/25 02:29:23;;;;;;;36.20;8.63;;;9.20;99.90;;;;;;5037035;28;20206;-80
2024/01/25 02:31:50;;;;;;;25.13;6.77;;;9.30;99.90;;;;;;5045036;28;20195;-79
2024/01/25 02:34:18;;;;;;;27.77;8.10;;;9.40;99.90;;;;;;5042823;28;20198;-80
2024/01/25 02:36:45;;;;;;;28.97;7.87;;;9.20;99.90;;;;;;5038557;28;20222;-79
2024/01/25 02:39:13;;;;;;;20.57;6.43;;;9.10;99.90;;;;;;5047967;28;20565;-79
2024/01/25 02:41:41;;;;;;;22.80;7.20;;;9.20;99.90;;;;;;5035560;28;20191;-80
2024/01/25 02:44:09;;;;;;;20.77;6.87;;;9.10;99.90;;;;;;5037323;28;20594;-80
2024/01/25 02:46:37;;;;;;;27.67;7.83;;;9.10;99.90;;;;;;5044141;28;20231;-79
2024/01/25 02:49:05;;;;;;;24.17;7.03;;;9.10;99.90;;;;;;5036542;28;20195;-80
2024/01/25 02:51:32;;;;;;;30.03;7.97;;;9.10;99.90;;;;;;5036866;28;20202;-80
2024/01/25 02:54:00;;;;;;;27.60;8.17;;;9.10;99.90;;;;;;5027731;28;20229;-80
2024/01/25 02:56:33;;;;;;;23.47;6.93;;;9.00;99.90;;;;;;5034397;28;20598;-79
2024/01/25 02:59:02;;;;;;;25.07;7.57;;;9.00;99.90;;;;;;5021127;28;20199;-80
2024/01/25 03:01:37;;;;;;;27.87;7.47;;;9.00;99.90;;;;;;5029607;28;20206;-80
2024/01/25 03:04:05;;;;;;;29.70;8.37;;;9.00;99.90;;;;;;5035320;28;20194;-80
2024/01/25 03:06:32;;;;;;;29.77;8.03;;;9.00;99.90;;;;;;5029505;28;20223;-80
2024/01/25 03:09:00;;;;;;;25.60;7.20;;;8.70;99.90;;;;;;5032950;28;20191;-79
2024/01/25 03:11:27;;;;;;;24.50;8.27;;;8.80;99.90;;;;;;5034995;28;20203;-79
2024/01/25 03:13:54;;;;;;;19.50;6.97;;;8.90;99.90;;;;;;5038118;28;20199;-79
2024/01/25 03:16:22;;;;;;;19.13;6.47;;;8.90;99.90;;;;;;5044402;28;20210;-79
2024/01/25 03:18:50;;;;;;;21.90;7.43;;;9.00;99.90;;;;;;5037542;28;20199;-80
2024/01/25 03:21:17;;;;;;;27.63;7.03;;;8.90;99.90;;;;;;5035754;28;20210;-80
2024/01/25 03:23:45;;;;;;;25.23;7.03;;;8.70;99.90;;;;;;5042724;28;20199;-79
2024/01/25 03:26:12;;;;;;;20.63;6.67;;;8.70;99.90;;;;;;5041518;28;20238;-79
2024/01/25 03:28:40;;;;;;;27.30;7.50;;;8.80;99.90;;;;;;5037684;28;20191;-80
2024/01/25 03:31:07;;;;;;;25.07;6.53;;;8.80;99.90;;;;;;5036549;28;20200;-80
2024/01/25 03:33:36;;;;;;;21.30;7.07;;;8.90;99.90;;;;;;5035907;28;20205;-79
2024/01/25 03:36:04;;;;;;;17.20;6.13;;;8.60;99.90;;;;;;5040001;28;20215;-80
2024/01/25 03:38:31;;;;;;;24.00;7.03;;;8.70;99.90;;;;;;5038645;28;20250;-80
2024/01/25 03:40:59;;;;;;;23.37;6.37;;;8.70;99.90;;;;;;5024897;28;20203;-80
2024/01/25 03:43:26;;;;;;;20.77;6.20;;;8.70;99.90;;;;;;5041386;28;20575;-80
2024/01/25 03:45:54;;;;;;;21.37;5.77;;;8.50;99.90;;;;;;5034391;28;20229;-80
2024/01/25 03:48:21;;;;;;;24.53;7.60;;;8.50;99.90;;;;;;5034175;28;20206;-80
2024/01/25 03:50:50;;;;;;;22.23;6.60;;;8.40;99.90;;;;;;5035344;28;20207;-80
2024/01/25 03:53:18;;;;;;;23.87;6.90;;;8.40;99.90;;;;;;5035628;28;20679;-81
2024/01/25 03:55:45;;;;;;;24.47;7.27;;;8.30;99.90;;;;;;5052537;28;20240;-80
2024/01/25 03:58:13;;;;;;;20.97;6.37;;;8.30;99.90;;;;;;5056454;28;20194;-80
2024/01/25 04:00:40;;;;;;;23.50;6.80;;;8.30;99.90;;;;;;5027591;28;20207;-79
2024/01/25 04:03:08;;;;;;;29.17;6.37;;;8.50;99.90;;;;;;5042168;28;20561;-80
2024/01/25 04:05:35;;;;;;;19.83;6.80;;;8.50;99.90;;;;;;5035186;28;20207;-80
2024/01/25 04:08:04;;;;;;;23.13;6.27;;;8.40;99.90;;;;;;5034771;28;20214;-80
2024/01/25 04:10:32;;;;;;;20.10;7.00;;;8.40;99.90;;;;;;5035020;28;20199;-80
2024/01/25 04:13:00;;;;;;;24.47;6.27;;;8.30;99.90;;;;;;5025207;28;20207;-80
2024/01/25 04:15:27;;;;;;;22.40;6.33;;;8.30;99.90;;;;;;5037318;28;20649;-80
2024/01/25 04:17:55;;;;;;;28.93;7.43;;;8.20;99.90;;;;;;5042282;28;20201;-80
2024/01/25 04:20:23;;;;;;;30.50;6.80;;;8.20;99.90;;;;;;5036126;28;20202;-80
2024/01/25 04:22:50;;;;;;;22.40;6.17;;;8.20;99.90;;;;;;5035039;28;20210;-79
2024/01/25 04:25:20;;;;;;;29.13;6.80;;;8.20;99.90;;;;;;5046252;28;20905;-80
2024/01/25 04:27:47;;;;;;;29.17;7.37;;;8.10;99.90;;;;;;5025612;28;20218;-79
2024/01/25 04:30:15;;;;;;;24.63;6.50;;;8.20;99.90;;;;;;5037137;28;20199;-79
2024/01/25 04:32:42;;;;;;;21.63;6.77;;;8.00;99.90;;;;;;5041766;28;20191;-80
2024/01/25 04:35:10;;;;;;;23.33;6.53;;;8.00;99.90;;;;;;5035583;28;20199;-80
2024/01/25 04:37:37;;;;;;;25.10;6.00;;;8.00;99.90;;;;;;5034021;28;20214;-79
2024/01/25 04:40:06;;;;;;;29.53;6.43;;;7.90;99.90;;;;;;5030108;28;20204;-79
2024/01/25 04:42:35;;;;;;;31.27;6.80;;;7.90;99.90;;;;;;5029294;28;20211;-79
2024/01/25 04:45:02;;;;;;;27.13;7.10;;;7.80;99.90;;;;;;5019982;28;20214;-80
2024/01/25 04:47:30;;;;;;;21.43;6.47;;;7.80;99.90;;;;;;5040767;28;20226;-80
2024/01/25 04:49:58;;;;;;;24.97;6.10;;;7.70;99.90;;;;;;5034122;28;20195;-80
2024/01/25 04:52:26;;;;;;;25.37;6.23;;;7.70;99.90;;;;;;5066890;28;20194;-80
2024/01/25 04:54:53;;;;;;;25.47;5.83;;;7.70;99.90;;;;;;5033398;28;20210;-79
2024/01/25 04:57:21;;;;;;;22.43;6.07;;;7.70;99.90;;;;;;5037988;28;20771;-80
2024/01/25 04:59:49;;;;;;;31.93;9.50;;;7.60;99.90;;;;;;5035214;28;20210;-80
2024/01/25 05:02:17;;;;;;;26.37;7.10;;;7.60;99.90;;;;;;5036439;28;20202;-80
2024/01/25 05:04:44;;;;;;;31.70;7.03;;;7.60;99.90;;;;;;5032479;28;20537;-80
2024/01/25 05:07:12;;;;;;;23.00;7.57;;;7.50;99.90;;;;;;5046122;28;20229;-80
2024/01/25 05:09:39;;;;;;;28.80;6.43;;;7.50;99.90;;;;;;5053820;28;20208;-80
2024/01/25 05:12:07;;;;;;;23.27;5.70;;;7.60;99.90;;;;;;5036714;28;20202;-79
2024/01/25 05:14:35;;;;;;;27.03;7.17;;;7.60;99.90;;;;;;5033414;28;20198;-80
2024/01/25 05:17:04;;;;;;;29.03;6.60;;;7.50;99.90;;;;;;5033433;28;20691;-79
2024/01/25 05:19:33;;;;;;;30.13;7.67;;;7.60;99.90;;;;;;5039121;28;20537;-80
2024/01/25 05:22:06;;;;;;;32.13;8.03;;;7.50;99.90;;;;;;5044220;28;20567;-79
2024/01/25 05:24:35;;;;;;;20.60;6.40;;;7.50;99.90;;;;;;5039335;28;20195;-79
2024/01/25 05:27:03;;;;;;;27.47;6.90;;;7.40;99.90;;;;;;5047279;28;20217;-80
2024/01/25 05:29:30;;;;;;;27.93;6.57;;;7.50;99.90;;;;;;5040250;28;20560;-81
2024/01/25 05:31:57;;;;;;;29.40;7.47;;;7.60;99.90;;;;;;5042971;28;20198;-81
2024/01/25 05:34:43;;;;;;;23.10;6.93;;;7.50;99.90;;;;;;5042499;28;20672;-80
2024/01/25 05:37:11;;;;;;;26.53;7.03;;;7.50;99.90;;;;;;5049722;28;20575;-81
2024/01/25 05:39:38;;;;;;;27.57;6.47;;;7.40;99.90;;;;;;5067592;28;20206;-81
2024/01/25 05:42:06;;;;;;;30.90;7.17;;;7.30;99.90;;;;;;5043786;28;20197;-81
2024/01/25 05:44:33;;;;;;;22.67;6.90;;;7.30;99.90;;;;;;5039057;28;20202;-81
2024/01/25 05:47:01;;;;;;;26.13;6.40;;;7.20;99.90;;;;;;5051847;28;20234;-81
2024/01/25 05:49:30;;;;;;;28.40;6.53;;;7.30;99.90;;;;;;5063682;28;20198;-81
2024/01/25 05:51:57;;;;;;;23.30;7.13;;;7.50;99.90;;;;;;5064791;28;20197;-81
2024/01/25 05:54:25;;;;;;;18.67;5.93;;;7.50;99.90;;;;;;5062346;28;20218;-81
2024/01/25 05:56:52;;;;;;;23.27;7.57;;;7.50;99.90;;;;;;5071016;28;20218;-81
2024/01/25 05:59:20;;;;;;;29.50;8.20;;;7.40;99.90;;;;;;5048873;28;20198;-81
2024/01/25 06:01:47;;;;;;;23.83;7.30;;;7.40;99.90;;;;;;5045067;28;20191;-81
2024/01/25 06:04:15;;;;;;;25.70;6.80;;;7.50;99.90;;;;;;5043102;28;20199;-81
2024/01/25 06:06:43;;;;;;;24.37;7.50;;;7.30;99.90;;;;;;5049033;28;20222;-81
2024/01/25 06:09:11;;;;;;;25.80;7.00;;;7.30;99.90;;;;;;5037359;28;20199;-81
2024/01/25 06:11:39;;;;;;;18.93;6.53;;;7.30;99.90;;;;;;5038960;28;20202;-81
2024/01/25 06:14:06;;;;;;;26.67;7.47;;;7.30;99.90;;;;;;5042357;28;20214;-81
2024/01/25 06:16:36;;;;;;;26.90;7.07;;;7.30;99.90;;;;;;5045439;28;20223;-81
2024/01/25 06:19:04;;;;;;;28.87;7.77;;;7.40;99.90;;;;;;5044857;28;20190;-81
2024/01/25 06:21:35;;;;;;;29.53;6.73;;;7.40;99.90;;;;;;5033982;28;20214;-81
2024/01/25 06:24:04;;;;;;;19.97;6.63;;;7.40;99.90;;;;;;5049846;28;20199;-81
2024/01/25 06:26:32;;;;;;;23.83;7.27;;;7.40;99.90;;;;;;5065587;28;20214;-81
2024/01/25 06:28:59;;;;;;;18.97;5.97;;;7.40;99.90;;;;;;5041630;28;20677;-81
2024/01/25 06:31:27;;;;;;;30.27;6.70;;;7.60;99.90;;;;;;5044630;28;20203;-81
2024/01/25 06:33:54;;;;;;;28.23;7.93;;;7.50;99.90;;;;;;5060574;28;20203;-81
2024/01/25 06:36:22;;;;;;;17.97;6.60;;;7.20;99.90;;;;;;5044767;28;20225;-82
2024/01/25 06:38:50;;;;;;;28.47;6.90;;;7.10;99.90;;;;;;5081335;28;20204;-82
2024/01/25 06:41:18;;;;;;;28.70;6.90;;;7.20;99.90;;;;;;5060156;28;20611;-82
2024/01/25 06:43:46;;;;;;;26.37;8.57;;;7.10;99.90;;;;;;5056546;28;20213;-81
2024/01/25 06:46:13;;;;;;;28.50;7.53;;;7.10;99.90;;;;;;5042345;28;20229;-83
2024/01/25 06:48:42;;;;;;;19.83;7.47;;;7.10;99.90;;;;;;5062610;28;20209;-82
2024/01/25 06:51:09;;;;;;;31.13;7.90;;;7.00;99.90;;;;;;5050358;28;20216;-83
2024/01/25 06:53:37;;;;;;;25.40;6.63;;;6.90;99.90;;;;;;5047787;28;20202;-81
2024/01/25 06:56:05;;;;;;;24.80;6.80;;;6.90;99.90;;;;;;5052455;28;20230;-82
2024/01/25 06:58:34;;;;;;;28.97;7.50;;;6.90;99.90;;;;;;5038669;28;20206;-82
2024/01/25 07:01:01;;;;;;;21.97;7.57;;;7.00;99.90;;;;;;5032373;28;20216;-80
2024/01/25 07:03:29;;;;;;;22.43;7.37;;;6.90;99.90;;;;;;5039503;28;20202;-80
2024/01/25 07:05:56;;;;;;;32.50;8.47;;;6.90;99.90;;;;;;5045776;28;20249;-80
2024/01/25 07:08:24;;;;;;;23.67;7.20;;;7.00;99.90;;;;;;5055857;28;20235;-81
2024/01/25 07:10:51;;;;;;;28.37;7.77;;;7.00;99.90;;;;;;5047443;28;20203;-81
2024/01/25 07:13:20;;;;;;;28.20;7.33;;;6.90;99.90;;;;;;5038083;28;20195;-81
2024/01/25 07:15:49;;;;;;;30.27;7.47;;;6.90;99.90;;;;;;5035587;28;20226;-80
2024/01/25 07:18:17;;;;;;;30.87;8.77;;;7.00;99.90;;;;;;5045014;28;20198;-80
2024/01/25 07:20:44;;;;;;;22.73;7.03;;;7.00;99.90;;;;;;5062314;28;20202;-81
2024/01/25 07:23:12;;;;;;;24.53;7.87;;;6.80;99.90;;;;;;5052323;28;20206;-81
2024/01/25 07:25:39;;;;;;;25.63;7.80;;;6.90;99.90;;;;;;5046407;28;20209;-79
2024/01/25 07:28:07;;;;;;;25.20;7.90;;;6.90;99.90;;;;;;5032954;28;20229;-79
2024/01/25 07:30:34;;;;;;;36.57;8.47;;;6.80;99.90;;;;;;5034105;28;20220;-79
2024/01/25 07:33:04;;;;;;;27.93;8.77;;;6.90;99.90;;;;;;5031692;28;20708;-79
2024/01/25 07:35:32;;;;;;;32.50;8.70;;;6.90;99.90;;;;;;5022674;28;20214;-77
2024/01/25 07:38:00;;;;;;;32.03;8.27;;;7.00;99.90;;;;;;5025018;28;20214;-77
2024/01/25 07:40:27;;;;;;;27.10;7.77;;;7.00;99.90;;;;;;5027965;28;20202;-77
2024/01/25 07:42:55;;;;;;;23.97;8.27;;;7.10;99.90;;;;;;5033348;28;20225;-77
2024/01/25 07:45:23;;;;;;;29.60;8.07;;;7.30;99.90;;;;;;5029679;28;20195;-77
2024/01/25 07:47:50;;;;;;;28.83;7.83;;;7.30;99.90;;;;;;5034645;28;20218;-77
2024/01/25 07:50:19;;;;;;;30.40;7.83;;;7.30;99.90;;;;;;5021950;28;20211;-77
2024/01/25 07:52:47;;;;;;;27.17;7.60;;;7.30;99.90;;;;;;5025047;28;20210;-78
2024/01/25 07:55:14;;;;;;;22.20;7.70;;;7.10;99.90;;;;;;5028253;28;20217;-77
2024/01/25 07:57:42;;;;;;;24.10;7.97;;;7.10;99.90;;;;;;5018781;28;20227;-77
2024/01/25 08:00:10;;;;;;;34.23;8.00;;;7.20;99.90;;;;;;5024319;28;20210;-77
2024/01/25 08:02:38;;;;;;;30.83;8.90;;;7.10;99.90;;;;;;5047530;28;20211;-78
2024/01/25 08:05:05;;;;;;;35.00;9.73;;;7.30;99.90;;;;;;5031406;28;20203;-77
2024/01/25 08:07:34;;;;;;;33.83;9.03;;;7.20;99.90;;;;;;5028692;28;20231;-78
2024/01/25 08:10:02;;;;;;;23.27;7.87;;;7.20;99.90;;;;;;5030197;28;20198;-77
2024/01/25 08:12:29;;;;;;;30.23;9.43;;;7.20;99.90;;;;;;5024687;28;20193;-77
2024/01/25 08:14:57;;;;;;;28.00;8.43;;;7.00;99.90;;;;;;5051256;28;20202;-77
2024/01/25 08:17:24;;;;;;;29.00;8.80;;;7.20;99.90;;;;;;5045290;28;20557;-78
2024/01/25 08:19:51;;;;;;;34.30;11.40;;;7.10;99.90;;;;;;5041196;28;20210;-77
2024/01/25 08:22:19;;;;;;;32.40;10.57;;;7.10;99.90;;;;;;5024528;28;20210;-77
2024/01/25 08:24:48;;;;;;;31.97;10.80;;;7.20;99.90;;;;;;5046239;28;20209;-77
2024/01/25 08:27:15;;;;;;;29.97;9.87;;;7.10;99.90;;;;;;5041587;28;20723;-77
2024/01/25 08:29:43;;;;;;;32.23;10.50;;;7.20;99.90;;;;;;5033253;28;20586;-77
2024/01/25 08:32:10;;;;;;;30.37;10.33;;;7.20;99.90;;;;;;5040268;28;20210;-77
2024/01/25 08:34:37;;;;;;;25.90;9.07;;;7.30;99.90;;;;;;5037268;28;20199;-77
2024/01/25 08:37:05;;;;;;;31.50;10.50;;;7.30;99.90;;;;;;5031078;28;20222;-77
2024/01/25 08:39:32;;;;;;;30.13;10.30;;;7.30;99.90;;;;;;5031332;28;20199;-77
2024/01/25 08:42:03;;;;;;;31.50;11.03;;;7.30;99.90;;;;;;5030030;28;20194;-78
2024/01/25 08:44:30;;;;;;;29.60;10.10;;;7.30;99.90;;;;;;5030438;28;20199;-78
2024/01/25 08:46:58;;;;;;;26.87;8.80;;;7.30;99.90;;;;;;5029487;28;20214;-78
2024/01/25 08:49:25;;;;;;;29.90;10.27;;;7.30;99.90;;;;;;5023044;28;20221;-77
2024/01/25 08:51:53;;;;;;;29.33;9.50;;;7.20;99.90;;;;;;5047262;28;20215;-78
2024/01/25 08:54:20;;;;;;;35.83;10.57;;;7.10;99.90;;;;;;5033640;28;20285;-77
2024/01/25 08:56:48;;;;;;;32.37;10.17;;;7.10;99.90;;;;;;5050858;28;20225;-78
2024/01/25 08:59:16;;;;;;;32.37;8.83;;;7.10;99.90;;;;;;5034078;28;20568;-77
2024/01/25 09:01:44;;;;;;;35.03;9.57;;;7.00;99.90;;;;;;5030003;28;20570;-77
2024/01/25 09:04:11;;;;;;;31.57;9.80;;;7.10;99.90;;;;;;5023782;28;20207;-78
2024/01/25 09:06:39;;;;;;;27.47;10.00;;;7.10;99.90;;;;;;5019700;28;20235;-78
2024/01/25 09:09:06;;;;;;;34.20;11.27;;;7.30;99.90;;;;;;5024650;28;20222;-78
2024/01/25 09:11:34;;;;;;;29.83;10.37;;;7.30;99.90;;;;;;5033647;28;20197;-77
2024/01/25 09:14:01;;;;;;;27.93;10.03;;;7.40;99.90;;;;;;5033754;28;20212;-78
2024/01/25 09:16:30;;;;;;;34.90;10.30;;;7.50;99.90;;;;;;5031909;28;20223;-78
2024/01/25 09:18:57;;;;;;;31.37;10.10;;;7.50;99.90;;;;;;5041580;28;20194;-78
2024/01/25 09:21:26;;;;;;;29.93;9.90;;;7.60;99.90;;;;;;5038226;28;20206;-77
2024/01/25 09:23:55;;;;;;;30.27;10.07;;;7.70;99.90;;;;;;5040295;28;20214;-80
2024/01/25 09:26:23;;;;;;;31.37;10.87;;;7.70;99.90;;;;;;5029644;28;20217;-80
2024/01/25 09:28:50;;;;;;;34.53;9.87;;;7.60;99.90;;;;;;5050807;28;20223;-77
2024/01/25 09:31:18;;;;;;;28.30;10.47;;;7.90;99.90;;;;;;5034211;28;20203;-77
2024/01/25 09:33:46;;;;;;;32.00;11.13;;;7.90;99.90;;;;;;5033423;28;20560;-78
2024/01/25 09:36:14;;;;;;;29.73;10.83;;;8.10;99.90;;;;;;5019721;28;20231;-78
2024/01/25 09:38:41;;;;;;;38.83;12.70;;;8.00;99.90;;;;;;5027538;28;20209;-78
2024/01/25 09:41:09;;;;;;;33.17;11.17;;;7.80;99.90;;;;;;5040730;28;20714;-77
2024/01/25 09:43:37;;;;;;;39.10;12.17;;;7.80;99.90;;;;;;5028380;28;20202;-77
2024/01/25 09:46:07;;;;;;;37.03;13.30;;;7.70;99.90;;;;;;5033379;28;20233;-77
2024/01/25 09:48:35;;;;;;;31.17;13.17;;;7.70;99.90;;;;;;5032718;28;20211;-78
2024/01/25 09:51:04;;;;;;;35.40;13.53;;;7.90;99.90;;;;;;5049813;28;20214;-77
2024/01/25 09:53:46;;;;;;;31.80;14.13;;;7.80;99.90;;;;;;5016089;28;20226;-77
2024/01/25 09:56:14;;;;;;;40.90;16.13;;;7.80;99.90;;;;;;5031926;28;20700;-78
2024/01/25 09:58:42;;;;;;;31.40;13.57;;;7.80;99.90;;;;;;5043392;28;20203;-79
2024/01/25 10:01:12;;;;;;;35.97;15.67;;;7.70;99.90;;;;;;5030560;28;20687;-78
2024/01/25 10:03:41;;;;;;;36.80;15.23;;;7.90;99.90;;;;;;5035275;28;20578;-78
2024/01/25 10:06:09;;;;;;;39.63;16.60;;;8.00;99.90;;;;;;5037161;28;20246;-77
2024/01/25 10:08:37;;;;;;;43.20;17.90;;;8.10;99.90;;;;;;5027871;28;20218;-77
2024/01/25 10:11:04;;;;;;;39.07;17.07;;;8.10;99.90;;;;;;5031205;28;20653;-77
2024/01/25 10:13:32;;;;;;;39.53;17.33;;;8.00;99.90;;;;;;5032528;28;20653;-77
2024/01/25 10:16:00;;;;;;;42.53;16.20;;;7.90;99.90;;;;;;5032981;28;20587;-78
2024/01/25 10:18:27;;;;;;;40.37;18.03;;;8.10;99.90;;;;;;5032129;28;20679;-77
2024/01/25 10:20:55;;;;;;;41.50;19.00;;;8.30;99.90;;;;;;5041195;28;20198;-77
2024/01/25 10:23:25;;;;;;;39.27;19.57;;;8.20;99.90;;;;;;5048309;28;20584;-77
2024/01/25 10:25:52;;;;;;;45.33;18.53;;;8.30;99.90;;;;;;5028832;28;20222;-77
2024/01/25 10:28:20;;;;;;;44.10;18.87;;;8.20;99.90;;;;;;5034185;28;20206;-78
2024/01/25 10:30:48;;;;;;;44.17;19.80;;;8.40;99.90;;;;;;5046531;28;20595;-77
2024/01/25 10:33:18;;;;;;;38.33;19.60;;;8.50;99.90;;;;;;5022210;28;20214;-77
2024/01/25 10:35:49;;;;;;;41.33;19.53;;;8.30;99.90;;;;;;5032662;28;20230;-78
2024/01/25 10:38:18;;;;;;;44.53;18.90;;;8.40;99.90;;;;;;5023318;28;20204;-77
2024/01/25 10:40:48;;;;;;;46.60;19.30;;;8.30;99.90;;;;;;5026960;28;20211;-77
2024/01/25 10:43:15;;;;;;;38.07;19.00;;;8.30;99.90;;;;;;5053890;28;20694;-79
2024/01/25 10:45:43;;;;;;;39.53;18.57;;;8.20;99.90;;;;;;5033442;28;20198;-79
2024/01/25 10:48:10;;;;;;;49.60;20.83;;;8.30;99.90;;;;;;5034123;28;20205;-80
2024/01/25 10:50:39;;;;;;;48.93;20.00;;;8.20;99.90;;;;;;5032838;28;20223;-80
2024/01/25 10:53:08;;;;;;;49.23;19.17;;;8.30;99.90;;;;;;5031409;28;20577;-81
2024/01/25 10:55:36;;;;;;;44.63;18.93;;;8.20;99.90;;;;;;5037550;28;20202;-80
2024/01/25 10:58:08;;;;;;;48.90;20.30;;;8.10;99.90;;;;;;5052837;28;20214;-80
2024/01/25 11:00:36;;;;;;;41.57;19.77;;;8.20;99.90;;;;;;5041580;28;20198;-79
2024/01/25 11:03:06;;;;;;;44.23;19.37;;;8.10;99.90;;;;;;5034967;28;20214;-79
2024/01/25 11:05:34;;;;;;;50.00;19.87;;;8.00;99.90;;;;;;5036077;28;20206;-79
2024/01/25 11:08:01;;;;;;;48.47;20.20;;;8.20;99.90;;;;;;5041314;28;20206;-80
2024/01/25 11:10:35;;;;;;;51.30;21.20;;;8.30;99.90;;;;;;5041882;28;20217;-79
2024/01/25 11:13:05;;;;;;;48.83;20.53;;;8.40;99.90;;;;;;5039561;28;20230;-78
2024/01/25 11:15:34;;;;;;;48.40;19.70;;;8.60;99.90;;;;;;5039823;28;20206;-79
2024/01/25 11:18:06;;;;;;;45.50;18.87;;;8.80;99.90;;;;;;5048096;28;20199;-79
2024/01/25 11:20:35;;;;;;;50.03;19.30;;;8.70;99.90;;;;;;5032144;28;20206;-79
2024/01/25 11:23:04;;;;;;;41.53;18.10;;;8.70;99.90;;;;;;5037352;28;20207;-79
2024/01/25 11:25:33;;;;;;;45.30;18.17;;;8.60;99.90;;;;;;5031971;28;20210;-79
2024/01/25 11:28:02;;;;;;;43.47;18.73;;;8.70;99.90;;;;;;5043382;28;20194;-79
2024/01/25 11:30:34;;;;;;;39.13;17.10;;;8.70;99.90;;;;;;5026123;28;20207;-79
2024/01/25 11:33:05;;;;;;;42.90;18.13;;;8.60;99.90;;;;;;5037518;28;20206;-79
2024/01/25 11:35:32;;;;;;;38.23;17.67;;;8.70;99.90;;;;;;5033637;28;20309;-79
2024/01/25 11:38:00;;;;;;;36.53;15.77;;;8.80;99.90;;;;;;5029078;28;20209;-79
2024/01/25 11:40:28;;;;;;;35.33;16.17;;;8.80;99.90;;;;;;5033358;28;20205;-79
2024/01/25 11:42:55;;;;;;;40.30;15.17;;;8.70;99.90;;;;;;5041573;28;20206;-79
2024/01/25 11:45:26;;;;;;;36.00;13.87;;;8.80;99.90;;;;;;5032169;28;20270;-78
2024/01/25 11:47:55;;;;;;;35.67;15.20;;;8.70;99.90;;;;;;5046804;28;20199;-78
2024/01/25 11:50:23;;;;;;;39.20;15.87;;;8.80;99.90;;;;;;5029894;28;20204;-79
2024/01/25 11:52:51;;;;;;;35.73;14.47;;;8.80;99.90;;;;;;5052399;28;20214;-78
2024/01/25 11:55:18;;;;;;;37.83;15.53;;;9.10;99.90;;;;;;5040376;28;20673;-80
2024/01/25 11:57:47;;;;;;;37.27;14.90;;;9.00;99.90;;;;;;5037323;28;20234;-79
2024/01/25 12:00:17;;;;;;;33.33;15.33;;;9.10;99.90;;;;;;5056828;22;20229;-79
2024/01/25 12:02:45;;;;;;;33.97;13.97;;;9.00;99.90;;;;;;5050976;28;20203;-79
2024/01/25 12:05:14;;;;;;;34.23;13.43;;;9.00;99.90;;;;;;5054312;28;20217;-79
2024/01/25 12:07:41;;;;;;;29.73;13.37;;;8.90;99.90;;;;;;5054335;28;20583;-79
2024/01/25 12:10:15;;;;;;;29.77;12.40;;;9.00;99.90;;;;;;5029367;28;20222;-79
2024/01/25 12:12:43;;;;;;;27.63;10.13;;;9.10;99.90;;;;;;5030426;28;20201;-79
2024/01/25 12:15:10;;;;;;;27.80;9.53;;;9.00;99.90;;;;;;5034799;28;20194;-79
2024/01/25 12:17:39;;;;;;;16.63;7.90;;;9.20;99.90;;;;;;5047682;28;20202;-79
2024/01/25 12:20:10;;;;;;;27.53;7.87;;;9.10;99.90;;;;;;5020843;28;20226;-79
2024/01/25 12:22:39;;;;;;;28.73;7.67;;;8.90;99.90;;;;;;5034288;28;20195;-79
2024/01/25 12:25:12;;;;;;;28.13;6.80;;;9.00;99.90;;;;;;5030555;28;20205;-79
2024/01/25 12:27:41;;;;;;;22.90;6.83;;;9.10;99.90;;;;;;5038969;28;20190;-78
2024/01/25 12:30:09;;;;;;;23.87;7.40;;;9.10;99.90;;;;;;5030611;28;20221;-79
2024/01/25 12:32:37;;;;;;;26.10;7.17;;;9.20;99.90;;;;;;5036538;28;20205;-79
2024/01/25 12:35:06;;;;;;;21.90;6.90;;;9.30;99.90;;;;;;5043398;28;20205;-78
2024/01/25 12:37:33;;;;;;;23.03;7.33;;;9.30;99.90;;;;;;5048954;28;20672;-79
2024/01/25 12:40:02;;;;;;;29.40;7.53;;;9.30;99.90;;;;;;5043708;28;20218;-79
2024/01/25 12:42:30;;;;;;;24.17;6.57;;;9.20;99.90;;;;;;5030248;28;20214;-79
2024/01/25 12:44:57;;;;;;;24.57;6.23;;;9.20;99.90;;;;;;5033868;28;20206;-79
2024/01/25 12:47:25;;;;;;;24.83;7.50;;;9.20;99.90;;;;;;5032386;28;20206;-79